createdAt,value
2019-04-05T00:00:16.985Z,96208.39
2019-04-05T00:02:46.444Z,96201.21
2019-04-05T00:05:16.219Z,96195.73
2019-04-05T00:07:45.675Z,96199.81
2019-04-05T00:10:15.316Z,96190.66
2019-04-05T00:12:44.697Z,96206.64
2019-04-05T00:15:15.913Z,96201.16
2019-04-05T00:17:45.562Z,96201.77
2019-04-05T00:20:15.997Z,96199.41
2019-04-05T00:22:45.387Z,96201.09
2019-04-05T00:25:15.736Z,96199.14
2019-04-05T00:27:46.745Z,96204.24
2019-04-05T00:30:16.279Z,96199.97
2019-04-05T00:32:45.676Z,96200.62
2019-04-05T00:35:15.151Z,96199.19
2019-04-05T00:37:44.530Z,96198.13
2019-04-05T00:40:14.810Z,96198.77
2019-04-05T00:42:44.403Z,96192.82
2019-04-05T00:45:27.247Z,96195.87
2019-04-05T00:47:45.854Z,96207.56
2019-04-05T00:50:15.489Z,96212.83
2019-04-05T00:52:44.875Z,96210.16
2019-04-05T00:55:14.857Z,96203.41
2019-04-05T00:57:44.446Z,96202.41
2019-04-05T01:00:15.023Z,96197.87
2019-04-05T01:02:44.535Z,96194.16
2019-04-05T01:05:14.490Z,96200.86
2019-04-05T01:07:44.698Z,96202.75
2019-04-05T01:10:15.131Z,96199.16
2019-04-05T01:12:46.133Z,96205.35
2019-04-05T01:15:16.869Z,96210.73
2019-04-05T01:17:46.338Z,96194.77
2019-04-05T01:20:15.895Z,96210.08
2019-04-05T01:22:46.328Z,96214.16
2019-04-05T01:25:15.714Z,96222.31
2019-04-05T01:27:48.232Z,96218.61
2019-04-05T01:30:16.483Z,96219.60
2019-04-05T01:32:47.219Z,96216.03
2019-04-05T01:35:16.754Z,96208.30
2019-04-05T01:37:46.777Z,96212.17
2019-04-05T01:40:16.327Z,96212.04
2019-04-05T01:42:46.654Z,96220.51
2019-04-05T01:45:16.290Z,96222.78
2019-04-05T01:47:45.791Z,96220.84
2019-04-05T01:50:15.308Z,96219.98
2019-04-05T01:52:45.075Z,96214.47
2019-04-05T01:55:15.526Z,96217.16
2019-04-05T01:57:45.646Z,96215.66
2019-04-05T02:00:16.091Z,96217.66
2019-04-05T02:02:46.258Z,96214.31
2019-04-05T02:05:16.587Z,96217.31
2019-04-05T02:07:46.586Z,96228.67
2019-04-05T02:10:16.734Z,96223.80
2019-04-05T02:12:47.039Z,96225.03
2019-04-05T02:15:25.586Z,96225.22
2019-04-05T02:17:55.400Z,96230.21
2019-04-05T02:20:25.184Z,96231.38
2019-04-05T02:22:54.661Z,96224.71
2019-04-05T02:25:24.498Z,96226.81
2019-04-05T02:27:53.871Z,96229.33
2019-04-05T02:30:23.399Z,96229.34
2019-04-05T02:32:52.865Z,96235.37
2019-04-05T02:35:22.315Z,96231.80
2019-04-05T02:37:51.703Z,96228.48
2019-04-05T02:40:22.674Z,96229.11
2019-04-05T02:42:54.863Z,96231.77
2019-04-05T02:45:25.497Z,96224.35
2019-04-05T02:47:57.920Z,96215.25
2019-04-05T02:50:28.129Z,96216.96
2019-04-05T02:53:00.498Z,96212.05
2019-04-05T02:55:31.344Z,96210.30
2019-04-05T02:58:03.437Z,96214.23
2019-04-05T03:00:33.948Z,96210.17
2019-04-05T03:03:05.817Z,96211.64
2019-04-05T03:05:35.036Z,96226.13
2019-04-05T03:08:04.932Z,96220.19
2019-04-05T03:10:53.298Z,96216.05
2019-04-05T03:13:26.951Z,96199.81
2019-04-05T03:15:59.320Z,96200.28
2019-04-05T03:18:30.937Z,96211.20
2019-04-05T03:21:01.083Z,96201.96
2019-04-05T03:23:32.764Z,96207.60
2019-04-05T03:26:02.932Z,96203.56
2019-04-05T03:28:35.005Z,96206.28
2019-04-05T03:31:04.537Z,96199.22
2019-04-05T03:33:34.261Z,96193.36
2019-04-05T03:36:03.784Z,96199.41
2019-04-05T03:38:33.379Z,96196.75
2019-04-05T03:41:02.841Z,96196.17
2019-04-05T03:43:32.282Z,96190.13
2019-04-05T03:46:01.810Z,96194.83
2019-04-05T03:48:31.261Z,96190.53
2019-04-05T03:51:01.022Z,96189.45
2019-04-05T03:53:30.646Z,96179.95
2019-04-05T03:56:00.680Z,96176.89
2019-04-05T03:58:30.201Z,96177.84
2019-04-05T04:01:00.085Z,96170.51
2019-04-05T04:03:29.612Z,96169.31
2019-04-05T04:05:59.137Z,96179.38
2019-04-05T04:08:28.609Z,96187.14
2019-04-05T04:10:58.416Z,96184.70
2019-04-05T04:13:28.721Z,96190.67
2019-04-05T04:15:59.601Z,96199.26
2019-04-05T04:18:29.094Z,96185.66
2019-04-05T04:21:05.316Z,96185.66
2019-04-05T04:23:35.355Z,96197.34
2019-04-05T04:26:05.062Z,96189.31
2019-04-05T04:28:34.693Z,96192.41
2019-04-05T04:31:04.324Z,96188.88
2019-04-05T04:33:33.972Z,96191.36
2019-04-05T04:36:03.908Z,96190.64
2019-04-05T04:38:33.533Z,96184.23
2019-04-05T04:41:03.148Z,96191.30
2019-04-05T04:43:32.672Z,96196.28
2019-04-05T04:46:02.720Z,96193.34
2019-04-05T04:48:32.943Z,96191.88
2019-04-05T04:51:02.582Z,96185.33
2019-04-05T04:53:32.922Z,96184.56
2019-04-05T04:56:03.067Z,96187.54
2019-04-05T04:58:33.166Z,96178.69
2019-04-05T05:01:03.333Z,96182.70
2019-04-05T05:03:33.909Z,96184.82
2019-04-05T05:06:04.149Z,96185.66
2019-04-05T05:08:33.969Z,96182.39
2019-04-05T05:11:14.029Z,96192.73
2019-04-05T05:13:35.996Z,96195.48
2019-04-05T05:16:05.474Z,96187.78
2019-04-05T05:18:35.088Z,96199.86
2019-04-05T05:21:05.925Z,96202.61
2019-04-05T05:23:35.735Z,96199.60
2019-04-05T05:26:06.246Z,96194.77
2019-04-05T05:28:36.157Z,96189.72
2019-04-05T05:31:06.521Z,96195.92
2019-04-05T05:33:36.649Z,96198.55
2019-04-05T05:36:10.262Z,96197.98
2019-04-05T05:38:38.502Z,96194.69
2019-04-05T05:41:08.096Z,96202.73
2019-04-05T05:43:37.871Z,96206.05
2019-04-05T05:46:07.855Z,96206.05
2019-04-05T05:48:38.772Z,96211.95
2019-04-05T05:51:09.163Z,96219.50
2019-04-05T05:53:38.618Z,96221.78
2019-04-05T05:56:08.745Z,96229.92
2019-04-05T05:58:38.909Z,96232.52
2019-04-05T06:01:09.270Z,96226.63
2019-04-05T06:03:39.375Z,96231.22
2019-04-05T06:06:09.737Z,96239.77
2019-04-05T06:08:39.943Z,96233.31
2019-04-05T06:11:10.146Z,96234.02
2019-04-05T06:13:40.416Z,96235.85
2019-04-05T06:16:10.696Z,96225.92
2019-04-05T06:18:41.009Z,96226.84
2019-04-05T06:21:11.187Z,96227.56
2019-04-05T06:23:41.358Z,96225.25
2019-04-05T06:26:11.628Z,96221.78
2019-04-05T06:28:41.942Z,96225.25
2019-04-05T06:31:12.157Z,96228.14
2019-04-05T06:33:42.363Z,96219.58
2019-04-05T06:36:12.674Z,96219.63
2019-04-05T06:38:42.928Z,96223.22
2019-04-05T06:41:13.143Z,96220.70
2019-04-05T06:43:43.367Z,96218.92
2019-04-05T06:46:13.606Z,96221.69
2019-04-05T06:48:43.802Z,96238.52
2019-04-05T06:51:14.156Z,96234.44
2019-04-05T06:53:44.385Z,96229.14
2019-04-05T06:56:14.674Z,96234.86
2019-04-05T06:58:46.461Z,96233.77
2019-04-05T07:01:15.960Z,96231.91
2019-04-05T07:03:45.442Z,96225.27
2019-04-05T07:06:15.803Z,96236.95
2019-04-05T07:08:53.546Z,96245.31
2019-04-05T07:11:16.987Z,96255.20
2019-04-05T07:13:46.460Z,96256.20
2019-04-05T07:16:16.821Z,96259.16
2019-04-05T07:18:46.975Z,96257.36
2019-04-05T07:21:17.583Z,96259.00
2019-04-05T07:23:47.751Z,96268.56
2019-04-05T07:26:20.822Z,96268.47
2019-04-05T07:28:48.971Z,96257.95
2019-04-05T07:31:18.424Z,96263.44
2019-04-05T07:33:48.621Z,96267.55
2019-04-05T07:36:18.909Z,96262.44
2019-04-05T07:38:49.168Z,96264.70
2019-04-05T07:41:19.492Z,96272.27
2019-04-05T07:43:49.579Z,96264.25
2019-04-05T07:46:19.916Z,96258.33
2019-04-05T07:48:50.059Z,96268.03
2019-04-05T07:51:22.756Z,96267.86
2019-04-05T07:53:51.577Z,96269.08
2019-04-05T07:56:21.221Z,96270.96
2019-04-05T07:58:51.111Z,96265.12
2019-04-05T08:01:21.517Z,96266.70
2019-04-05T08:03:51.637Z,96267.92
2019-04-05T08:06:21.897Z,96270.03
2019-04-05T08:09:02.254Z,96275.30
2019-04-05T08:11:33.098Z,96269.70
2019-04-05T08:14:02.620Z,96275.38
2019-04-05T08:16:32.085Z,96279.28
2019-04-05T08:19:01.533Z,96272.83
2019-04-05T08:21:30.992Z,96277.53
2019-04-05T08:24:01.424Z,96271.80
2019-04-05T08:26:30.904Z,96273.08
2019-04-05T08:29:00.576Z,96277.89
2019-04-05T08:31:29.982Z,96279.63
2019-04-05T08:33:59.372Z,96277.25
2019-04-05T08:36:28.771Z,96274.37
2019-04-05T08:38:58.156Z,96283.12
2019-04-05T08:41:27.558Z,96281.91
2019-04-05T08:43:56.964Z,96273.79
2019-04-05T08:46:26.353Z,96273.79
2019-04-05T08:48:56.309Z,96281.45
2019-04-05T08:51:26.716Z,96285.41
2019-04-05T08:53:56.810Z,96289.48
2019-04-05T08:56:27.053Z,96287.97
2019-04-05T08:58:57.276Z,96286.19
2019-04-05T09:01:27.470Z,96296.99
2019-04-05T09:03:57.601Z,96298.43
2019-04-05T09:06:27.873Z,96297.52
2019-04-05T09:08:58.055Z,96299.19
2019-04-05T09:11:28.397Z,96304.78
2019-04-05T09:13:58.565Z,96299.41
2019-04-05T09:16:28.812Z,96295.44
2019-04-05T09:18:59.048Z,96296.78
2019-04-05T09:21:29.434Z,96300.55
2019-04-05T09:23:59.781Z,96290.09
2019-04-05T09:26:29.970Z,96290.70
2019-04-05T09:29:00.106Z,96294.70
2019-04-05T09:31:30.521Z,96294.95
2019-04-05T09:34:01.957Z,96300.83
2019-04-05T09:36:31.360Z,96299.78
2019-04-05T09:39:01.208Z,96302.39
2019-04-05T09:41:32.074Z,96303.73
2019-04-05T09:44:01.728Z,96303.55
2019-04-05T09:46:46.036Z,96306.20
2019-04-05T09:49:06.026Z,96309.61
2019-04-05T09:51:35.410Z,96309.89
2019-04-05T09:54:05.038Z,96308.64
2019-04-05T09:56:34.526Z,96311.01
2019-04-05T09:59:03.906Z,96312.35
2019-04-05T10:01:33.657Z,96318.89
2019-04-05T10:04:03.786Z,96317.78
2019-04-05T10:06:34.106Z,96312.67
2019-04-05T10:09:06.018Z,96314.87
2019-04-05T10:11:35.480Z,96312.74
2019-04-05T10:14:05.042Z,96313.20
2019-04-05T10:16:35.018Z,96307.33
2019-04-05T10:19:05.452Z,96310.16
2019-04-05T10:21:35.609Z,96318.21
2019-04-05T10:24:05.871Z,96320.13
2019-04-05T10:26:36.074Z,96322.20
2019-04-05T10:29:06.232Z,96324.31
2019-04-05T10:31:36.573Z,96326.15
2019-04-05T10:34:06.771Z,96324.99
2019-04-05T10:36:37.066Z,96325.50
2019-04-05T10:39:09.573Z,96328.45
2019-04-05T10:41:38.975Z,96334.66
2019-04-05T10:44:13.822Z,96339.34
2019-04-05T10:46:43.279Z,96334.91
2019-04-05T10:49:15.100Z,96332.73
2019-04-05T10:51:44.718Z,96339.91
2019-04-05T10:54:14.121Z,96342.16
2019-04-05T10:56:43.508Z,96347.18
2019-04-05T10:59:12.967Z,96346.88
2019-04-05T11:01:42.369Z,96355.43
2019-04-05T11:04:11.825Z,96367.77
2019-04-05T11:06:41.358Z,96371.11
2019-04-05T11:09:10.885Z,96375.84
2019-04-05T11:11:40.689Z,96379.80
2019-04-05T11:14:13.993Z,96376.88
2019-04-05T11:16:42.053Z,96383.18
2019-04-05T11:19:11.451Z,96385.78
2019-04-05T11:21:41.817Z,96387.14
2019-04-05T11:24:12.090Z,96390.00
2019-04-05T11:26:42.188Z,96392.95
2019-04-05T11:29:14.255Z,96390.14
2019-04-05T11:31:55.970Z,96393.30
2019-04-05T11:34:14.833Z,96396.32
2019-04-05T11:36:44.572Z,96399.52
2019-04-05T11:39:13.958Z,96399.61
2019-04-05T11:41:44.454Z,96395.39
2019-04-05T11:44:14.016Z,96400.45
2019-04-05T11:46:49.180Z,96405.80
2019-04-05T11:49:17.195Z,96405.80
2019-04-05T11:51:46.668Z,96413.59
2019-04-05T11:54:18.391Z,96409.58
2019-04-05T11:56:47.153Z,96404.23
2019-04-05T11:59:16.970Z,96402.44
2019-04-05T12:01:48.007Z,96409.75
2019-04-05T12:04:17.419Z,96402.87
2019-04-05T12:06:46.809Z,96403.06
2019-04-05T12:09:16.387Z,96404.65
2019-04-05T12:11:46.638Z,96400.84
2019-04-05T12:14:29.660Z,96402.87
2019-04-05T12:16:49.225Z,96401.81
2019-04-05T12:19:18.623Z,96404.53
2019-04-05T12:21:48.024Z,96406.23
2019-04-05T12:24:17.692Z,96402.59
2019-04-05T12:26:47.892Z,96412.38
2019-04-05T12:29:18.109Z,96407.03
2019-04-05T12:31:48.613Z,96404.06
2019-04-05T12:34:21.471Z,96418.46
2019-04-05T12:36:50.558Z,96410.86
2019-04-05T12:39:20.777Z,96412.66
2019-04-05T12:41:50.185Z,96398.53
2019-04-05T12:44:19.577Z,96400.73
2019-04-05T12:46:48.973Z,96395.02
2019-04-05T12:49:18.888Z,96394.77
2019-04-05T12:51:48.916Z,96388.56
2019-04-05T12:54:18.908Z,96384.92
2019-04-05T12:56:48.921Z,96380.80
2019-04-05T12:59:18.940Z,96370.41
2019-04-05T13:01:49.013Z,96372.50
2019-04-05T13:04:20.755Z,96360.86
2019-04-05T13:06:50.621Z,96363.03
2019-04-05T13:09:23.662Z,96357.82
2019-04-05T13:11:52.515Z,96365.56
2019-04-05T13:14:21.920Z,96371.89
2019-04-05T13:16:51.319Z,96372.36
2019-04-05T13:19:21.808Z,96373.64
2019-04-05T13:21:51.198Z,96369.95
2019-04-05T13:24:20.603Z,96366.06
2019-04-05T13:26:49.987Z,96371.88
2019-04-05T13:29:20.459Z,96363.97
2019-04-05T13:31:49.842Z,96354.18
2019-04-05T13:34:19.245Z,96363.61
2019-04-05T13:36:49.165Z,96360.47
2019-04-05T13:39:19.191Z,96354.34
2019-04-05T13:41:49.411Z,96345.52
2019-04-05T13:44:19.910Z,96347.22
2019-04-05T13:46:49.639Z,96348.80
2019-04-05T13:49:19.660Z,96355.33
2019-04-05T13:51:49.659Z,96340.09
2019-04-05T13:54:19.690Z,96353.91
2019-04-05T13:56:49.691Z,96352.66
2019-04-05T13:59:19.753Z,96348.85
2019-04-05T14:01:51.424Z,96350.08
2019-04-05T14:04:21.966Z,96345.82
2019-04-05T14:06:53.534Z,96348.66
2019-04-05T14:09:22.480Z,96345.18
2019-04-05T14:11:51.945Z,96350.73
2019-04-05T14:14:21.648Z,96360.19
2019-04-05T14:16:53.934Z,96366.49
2019-04-05T14:19:22.266Z,96369.79
2019-04-05T14:21:53.606Z,96362.47
2019-04-05T14:24:23.444Z,96355.95
2019-04-05T14:26:53.336Z,96363.02
2019-04-05T14:29:22.792Z,96367.44
2019-04-05T14:31:52.281Z,96369.19
2019-04-05T14:34:23.589Z,96374.83
2019-04-05T14:36:52.763Z,96372.14
2019-04-05T14:39:23.138Z,96363.80
2019-04-05T14:41:52.524Z,96362.31
2019-04-05T14:44:21.988Z,96354.86
2019-04-05T14:46:51.394Z,96346.08
2019-04-05T14:49:20.785Z,96349.55
2019-04-05T14:51:53.881Z,96353.16
2019-04-05T14:54:21.530Z,96351.98
2019-04-05T14:56:50.998Z,96342.98
2019-04-05T14:59:20.658Z,96331.98
2019-04-05T15:01:50.086Z,96322.66
2019-04-05T15:04:20.459Z,96329.66
2019-04-05T15:06:50.617Z,96325.86
2019-04-05T15:09:24.808Z,96315.38
2019-04-05T15:11:51.932Z,96298.50
2019-04-05T15:14:21.400Z,96298.41
2019-04-05T15:16:50.790Z,96301.89
2019-04-05T15:19:20.184Z,96304.22
2019-04-05T15:21:50.576Z,96313.36
2019-04-05T15:24:20.068Z,96311.47
2019-04-05T15:26:51.513Z,96300.80
2019-04-05T15:29:21.177Z,96313.51
2019-04-05T15:31:50.652Z,96315.84
2019-04-05T15:34:20.112Z,96315.69
2019-04-05T15:36:50.109Z,96320.65
2019-04-05T15:39:20.263Z,96320.98
2019-04-05T15:41:50.141Z,96322.52
2019-04-05T15:44:20.149Z,96323.70
2019-04-05T15:46:50.140Z,96317.64
2019-04-05T15:49:21.617Z,96319.17
2019-04-05T15:51:54.316Z,96316.12
2019-04-05T15:54:22.326Z,96315.46
2019-04-05T15:56:51.728Z,96307.44
2019-04-05T16:54:58.667Z,96338.08
2019-04-05T16:57:28.129Z,96330.09
2019-04-05T16:59:57.533Z,96322.01
2019-04-05T17:02:26.921Z,96318.08
2019-04-05T17:04:56.356Z,96326.08
2019-04-05T17:07:25.708Z,96322.10
2019-04-05T17:09:55.207Z,96319.34
2019-04-05T17:12:24.559Z,96314.20
2019-04-05T17:14:53.957Z,96311.15
2019-04-05T17:17:23.445Z,96309.56
2019-04-05T17:19:53.510Z,96311.25
2019-04-05T17:22:23.532Z,96309.20
2019-04-05T17:24:53.537Z,96316.82
2019-04-05T17:27:23.555Z,96324.38
2019-04-05T17:29:53.605Z,96324.51
2019-04-05T17:32:23.588Z,96334.05
2019-04-05T17:34:53.615Z,96336.85
2019-04-05T17:37:26.501Z,96336.76
2019-04-05T17:39:54.814Z,96344.84
2019-04-05T17:42:24.220Z,96341.49
2019-04-05T17:44:53.603Z,96352.23
2019-04-05T17:47:23.601Z,96347.22
2019-04-05T17:49:53.614Z,96349.11
2019-04-05T17:52:23.574Z,96346.77
2019-04-05T17:54:53.635Z,96339.03
2019-04-05T17:57:23.805Z,96342.51
2019-04-05T17:59:53.959Z,96344.81
2019-04-05T18:02:23.782Z,96345.55
2019-04-05T18:04:53.622Z,96348.03
2019-04-05T18:07:23.645Z,96359.28
2019-04-05T18:09:53.750Z,96356.80
2019-04-05T18:12:23.761Z,96369.63
2019-04-05T18:14:53.683Z,96372.39
2019-04-05T18:17:23.700Z,96371.29
2019-04-05T18:19:53.732Z,96377.22
2019-04-05T18:22:23.724Z,96381.93
2019-04-05T18:24:53.755Z,96385.23
2019-04-05T18:27:23.720Z,96387.59
2019-04-05T18:29:53.785Z,96398.75
2019-04-05T18:32:23.949Z,96392.83
2019-04-05T18:34:59.349Z,96397.84
2019-04-05T18:37:28.879Z,96397.23
2019-04-05T18:39:58.318Z,96400.99
2019-04-05T18:42:27.726Z,96403.73
2019-04-05T18:44:58.192Z,96407.95
2019-04-05T18:47:27.582Z,96409.91
2019-04-05T18:50:02.953Z,96411.64
2019-04-05T18:52:28.069Z,96411.66
2019-04-05T18:54:57.444Z,96408.05
2019-04-05T18:57:26.841Z,96409.23
2019-04-05T18:59:56.229Z,96409.56
2019-04-05T19:02:25.611Z,96408.00
2019-04-05T19:04:55.008Z,96410.98
2019-04-05T19:07:24.490Z,96408.34
2019-04-05T19:09:53.975Z,96410.00
2019-04-05T19:12:23.953Z,96399.92
2019-04-05T19:14:54.016Z,96405.31
2019-04-05T19:17:24.664Z,96403.65
2019-04-05T19:19:54.158Z,96405.36
2019-04-05T19:22:23.991Z,96398.18
2019-04-05T19:24:54.002Z,96396.70
2019-04-05T19:27:24.088Z,96401.43
2019-04-05T19:29:55.079Z,96398.36
2019-04-05T19:50:02.316Z,96432.16
2019-04-05T19:52:31.723Z,96437.09
2019-04-05T19:55:01.163Z,96432.45
2019-04-05T19:57:30.604Z,96436.50
2019-04-05T19:59:59.992Z,96443.09
2019-04-05T20:02:29.456Z,96442.26
2019-04-05T20:04:58.950Z,96450.41
2019-04-05T20:07:28.319Z,96462.95
2019-04-05T20:09:57.763Z,96453.22
2019-04-05T20:12:27.278Z,96460.69
2019-04-05T20:14:56.647Z,96452.05
2019-04-05T20:17:26.036Z,96450.53
2019-04-05T20:19:55.419Z,96454.77
2019-04-05T20:22:24.811Z,96457.78
2019-04-05T20:24:54.334Z,96457.29
2019-04-05T20:27:24.263Z,96461.70
2019-04-05T20:29:54.289Z,96458.23
2019-04-05T20:32:24.356Z,96455.54
2019-04-05T20:34:54.463Z,96458.73
2019-04-05T20:37:24.476Z,96456.42
2019-04-05T20:39:54.520Z,96462.37
2019-04-05T20:42:24.426Z,96461.92
2019-04-05T20:44:54.423Z,96473.91
2019-04-05T20:47:24.452Z,96467.59
2019-04-05T20:49:54.805Z,96464.41
2019-04-05T20:52:25.083Z,96471.79
2019-04-05T20:54:54.937Z,96471.66
2019-04-05T20:57:25.155Z,96473.13
2019-04-05T20:59:55.356Z,96467.19
2019-04-05T21:02:25.715Z,96467.19
2019-04-05T21:04:55.818Z,96480.98
2019-04-05T21:07:26.248Z,96480.06
2019-04-05T21:09:56.619Z,96487.44
2019-04-05T21:12:26.587Z,96482.55
2019-04-05T21:14:56.708Z,96484.53
2019-04-05T21:17:27.121Z,96483.69
2019-04-05T21:19:57.226Z,96487.78
2019-04-05T21:22:27.837Z,96481.22
2019-04-05T21:24:57.671Z,96485.27
2019-04-05T21:27:27.862Z,96476.33
2019-04-05T21:29:58.067Z,96475.02
2019-04-05T21:32:28.459Z,96479.73
2019-04-05T21:34:58.597Z,96482.66
2019-04-05T21:37:28.924Z,96492.79
2019-04-05T21:39:59.118Z,96495.20
2019-04-05T21:42:29.360Z,96498.55
2019-04-05T21:44:59.534Z,96497.08
2019-04-05T21:47:29.989Z,96500.77
2019-04-05T21:50:00.105Z,96499.34
2019-04-05T21:52:30.235Z,96497.50
2019-04-05T21:55:00.398Z,96497.18
2019-04-05T21:57:30.701Z,96497.17
2019-04-05T22:00:00.852Z,96499.28
2019-04-05T22:02:31.193Z,96500.19
2019-04-05T22:05:01.463Z,96498.72
2019-04-05T22:07:31.895Z,96493.19
2019-04-05T22:10:01.795Z,96494.13
2019-04-05T22:12:32.146Z,96495.03
2019-04-05T22:15:02.170Z,96490.48
2019-04-05T22:17:32.753Z,96489.84
2019-04-05T22:20:02.748Z,96491.87
2019-04-05T22:22:32.818Z,96491.49
2019-04-05T22:25:02.745Z,96488.53
2019-04-05T22:27:32.682Z,96491.70
2019-04-05T22:30:02.694Z,96490.34
2019-04-05T22:32:32.701Z,96493.89
2019-04-05T22:35:02.795Z,96498.59
2019-04-05T22:37:32.801Z,96496.58
2019-04-05T22:40:02.826Z,96501.21
2019-04-05T22:42:33.164Z,96502.56
2019-04-05T22:45:02.758Z,96502.95
2019-04-05T22:47:32.771Z,96504.30
2019-04-05T22:50:03.895Z,96502.95
2019-04-05T22:52:33.236Z,96500.26
2019-04-05T22:55:10.967Z,96504.12
2019-04-05T22:57:33.953Z,96503.24
2019-04-05T23:00:04.665Z,96509.27
2019-04-05T23:02:35.664Z,96510.34
2019-04-05T23:05:07.036Z,96517.37
2019-04-05T23:07:36.428Z,96519.05
2019-04-05T23:10:07.747Z,96520.66
2019-04-05T23:12:37.129Z,96516.03
2019-04-05T23:15:08.038Z,96514.69
2019-04-05T23:17:37.467Z,96514.16
2019-04-05T23:20:07.575Z,96516.00
2019-04-05T23:22:36.946Z,96516.36
2019-04-05T23:25:07.367Z,96514.70
2019-04-05T23:27:37.713Z,96520.05
2019-04-05T23:30:08.199Z,96512.91
2019-04-05T23:32:37.586Z,96515.35
2019-04-05T23:35:07.486Z,96521.05
2019-04-05T23:37:36.873Z,96525.91
2019-04-05T23:40:06.896Z,96521.66
2019-04-05T23:42:36.287Z,96518.97
2019-04-05T23:45:06.692Z,96523.69
2019-04-05T23:47:36.072Z,96529.80
2019-04-05T23:50:07.154Z,96528.45
2019-04-05T23:52:36.526Z,96526.41
2019-04-05T23:55:06.938Z,96527.03
2019-04-05T23:57:36.601Z,96525.06
